sensor_id;sensor_type;location;lat;lon;timestamp;P1;durP1;ratioP1;P2;durP2;ratioP2
15006;SDS011;7599;50.748;13.142;2023-09-30T06:38:48;5.70;;;2.10;;
15006;SDS011;7599;50.748;13.142;2023-09-30T06:41:51;4.05;;;1.40;;
15006;SDS011;7599;50.748;13.142;2023-09-30T06:44:54;3.65;;;1.75;;
15006;SDS011;7599;50.748;13.142;2023-09-30T06:47:57;4.38;;;1.65;;
15006;SDS011;7599;50.748;13.142;2023-09-30T06:50:59;5.78;;;1.80;;
15006;SDS011;7599;50.748;13.142;2023-09-30T06:54:05;5.40;;;2.20;;
15006;SDS011;7599;50.748;13.142;2023-09-30T06:57:09;4.93;;;1.88;;
15006;SDS011;7599;50.748;13.142;2023-09-30T07:00:12;5.35;;;1.67;;
15006;SDS011;7599;50.748;13.142;2023-09-30T07:03:16;3.60;;;1.30;;
15006;SDS011;7599;50.748;13.142;2023-09-30T07:06:23;4.43;;;1.77;;
15006;SDS011;7599;50.748;13.142;2023-09-30T07:09:27;3.60;;;1.42;;
15006;SDS011;7599;50.748;13.142;2023-09-30T07:12:30;4.03;;;1.63;;
15006;SDS011;7599;50.748;13.142;2023-09-30T07:15:36;2.97;;;1.30;;
15006;SDS011;7599;50.748;13.142;2023-09-30T07:18:39;5.63;;;1.70;;
15006;SDS011;7599;50.748;13.142;2023-09-30T07:21:42;5.22;;;2.25;;
15006;SDS011;7599;50.748;13.142;2023-09-30T07:24:46;7.63;;;2.30;;
15006;SDS011;7599;50.748;13.142;2023-09-30T07:27:48;7.43;;;2.00;;
15006;SDS011;7599;50.748;13.142;2023-09-30T07:30:52;9.77;;;2.22;;
15006;SDS011;7599;50.748;13.142;2023-09-30T07:33:56;8.18;;;2.38;;
15006;SDS011;7599;50.748;13.142;2023-09-30T07:36:58;6.93;;;2.08;;
15006;SDS011;7599;50.748;13.142;2023-09-30T07:40:02;8.32;;;2.15;;
15006;SDS011;7599;50.748;13.142;2023-09-30T07:43:07;8.25;;;2.10;;
15006;SDS011;7599;50.748;13.142;2023-09-30T07:46:10;13.20;;;2.50;;
15006;SDS011;7599;50.748;13.142;2023-09-30T07:49:13;18.85;;;2.55;;
15006;SDS011;7599;50.748;13.142;2023-09-30T07:52:16;10.38;;;2.22;;
15006;SDS011;7599;50.748;13.142;2023-09-30T07:55:20;10.63;;;2.05;;
15006;SDS011;7599;50.748;13.142;2023-09-30T07:58:22;9.57;;;2.22;;
15006;SDS011;7599;50.748;13.142;2023-09-30T08:01:26;15.55;;;2.20;;
15006;SDS011;7599;50.748;13.142;2023-09-30T08:04:31;12.85;;;2.25;;
15006;SDS011;7599;50.748;13.142;2023-09-30T08:07:34;6.38;;;2.10;;
15006;SDS011;7599;50.748;13.142;2023-09-30T08:10:37;9.65;;;1.88;;
15006;SDS011;7599;50.748;13.142;2023-09-30T08:13:40;5.95;;;1.90;;
15006;SDS011;7599;50.748;13.142;2023-09-30T08:16:43;9.38;;;2.38;;
15006;SDS011;7599;50.748;13.142;2023-09-30T08:19:45;9.93;;;2.38;;
15006;SDS011;7599;50.748;13.142;2023-09-30T08:22:49;9.55;;;2.00;;
15006;SDS011;7599;50.748;13.142;2023-09-30T08:25:53;8.93;;;2.22;;
15006;SDS011;7599;50.748;13.142;2023-09-30T08:28:55;10.18;;;2.20;;
15006;SDS011;7599;50.748;13.142;2023-09-30T08:31:58;7.07;;;2.13;;
15006;SDS011;7599;50.748;13.142;2023-09-30T08:35:01;11.98;;;2.08;;
15006;SDS011;7599;50.748;13.142;2023-09-30T08:38:04;8.57;;;2.10;;
15006;SDS011;7599;50.748;13.142;2023-09-30T08:41:08;7.85;;;2.17;;
15006;SDS011;7599;50.748;13.142;2023-09-30T08:44:12;9.57;;;2.40;;
15006;SDS011;7599;50.748;13.142;2023-09-30T08:47:14;10.63;;;2.15;;
15006;SDS011;7599;50.748;13.142;2023-09-30T08:50:17;8.20;;;2.22;;
15006;SDS011;7599;50.748;13.142;2023-09-30T08:53:20;5.97;;;1.70;;
15006;SDS011;7599;50.748;13.142;2023-09-30T08:56:25;6.45;;;1.92;;
15006;SDS011;7599;50.748;13.142;2023-09-30T08:59:30;8.55;;;1.60;;
15006;SDS011;7599;50.748;13.142;2023-09-30T09:02:34;8.27;;;1.92;;
15006;SDS011;7599;50.748;13.142;2023-09-30T09:05:36;5.18;;;1.80;;
15006;SDS011;7599;50.748;13.142;2023-09-30T09:08:39;9.68;;;1.85;;
15006;SDS011;7599;50.748;13.142;2023-09-30T09:11:44;5.78;;;1.60;;
15006;SDS011;7599;50.748;13.142;2023-09-30T09:14:47;6.93;;;2.25;;
15006;SDS011;7599;50.748;13.142;2023-09-30T09:17:50;5.78;;;1.63;;
15006;SDS011;7599;50.748;13.142;2023-09-30T09:20:56;7.15;;;1.73;;
15006;SDS011;7599;50.748;13.142;2023-09-30T09:24:10;7.63;;;1.88;;
15006;SDS011;7599;50.748;13.142;2023-09-30T09:27:30;8.13;;;2.05;;
15006;SDS011;7599;50.748;13.142;2023-09-30T09:30:37;5.70;;;1.98;;
15006;SDS011;7599;50.748;13.142;2023-09-30T09:33:43;9.93;;;2.10;;
15006;SDS011;7599;50.748;13.142;2023-09-30T09:36:46;7.13;;;2.10;;
15006;SDS011;7599;50.748;13.142;2023-09-30T09:39:50;4.97;;;1.60;;
15006;SDS011;7599;50.748;13.142;2023-09-30T09:42:55;8.90;;;2.00;;
15006;SDS011;7599;50.748;13.142;2023-09-30T09:45:59;5.65;;;2.10;;
15006;SDS011;7599;50.748;13.142;2023-09-30T09:49:05;5.45;;;2.33;;
15006;SDS011;7599;50.748;13.142;2023-09-30T09:52:10;13.63;;;3.08;;
15006;SDS011;7599;50.748;13.142;2023-09-30T09:55:17;13.30;;;2.92;;
15006;SDS011;7599;50.748;13.142;2023-09-30T09:58:22;8.68;;;2.80;;
15006;SDS011;7599;50.748;13.142;2023-09-30T10:01:27;10.60;;;2.28;;
15006;SDS011;7599;50.748;13.142;2023-09-30T10:04:30;11.13;;;2.17;;
15006;SDS011;7599;50.748;13.142;2023-09-30T10:07:33;9.55;;;2.20;;
15006;SDS011;7599;50.748;13.142;2023-09-30T10:10:38;10.82;;;2.72;;
15006;SDS011;7599;50.748;13.142;2023-09-30T10:13:53;8.82;;;1.95;;
15006;SDS011;7599;50.748;13.142;2023-09-30T10:16:58;8.30;;;2.50;;
15006;SDS011;7599;50.748;13.142;2023-09-30T10:20:03;6.93;;;1.80;;
15006;SDS011;7599;50.748;13.142;2023-09-30T10:23:24;7.10;;;1.70;;
15006;SDS011;7599;50.748;13.142;2023-09-30T10:26:28;7.00;;;1.75;;
15006;SDS011;7599;50.748;13.142;2023-09-30T10:29:40;12.10;;;2.30;;
15006;SDS011;7599;50.748;13.142;2023-09-30T10:42:55;5.78;;;2.30;;
15006;SDS011;7599;50.748;13.142;2023-09-30T10:46:00;6.10;;;1.98;;
15006;SDS011;7599;50.748;13.142;2023-09-30T10:49:14;7.40;;;1.95;;
15006;SDS011;7599;50.748;13.142;2023-09-30T10:52:21;8.27;;;2.25;;
15006;SDS011;7599;50.748;13.142;2023-09-30T10:55:25;4.65;;;1.70;;
15006;SDS011;7599;50.748;13.142;2023-09-30T10:58:41;6.20;;;1.75;;
15006;SDS011;7599;50.748;13.142;2023-09-30T11:01:46;4.75;;;2.15;;
15006;SDS011;7599;50.748;13.142;2023-09-30T11:04:48;4.82;;;1.98;;
15006;SDS011;7599;50.748;13.142;2023-09-30T11:07:52;5.97;;;1.73;;
15006;SDS011;7599;50.748;13.142;2023-09-30T11:10:58;5.32;;;1.98;;
15006;SDS011;7599;50.748;13.142;2023-09-30T11:14:02;4.65;;;1.52;;
15006;SDS011;7599;50.748;13.142;2023-09-30T11:17:08;5.35;;;1.83;;
15006;SDS011;7599;50.748;13.142;2023-09-30T11:20:11;5.28;;;2.08;;
15006;SDS011;7599;50.748;13.142;2023-09-30T11:23:14;4.28;;;1.85;;
15006;SDS011;7599;50.748;13.142;2023-09-30T11:26:22;6.68;;;1.67;;
15006;SDS011;7599;50.748;13.142;2023-09-30T11:29:32;8.00;;;1.90;;
15006;SDS011;7599;50.748;13.142;2023-09-30T11:32:36;3.80;;;1.80;;
15006;SDS011;7599;50.748;13.142;2023-09-30T11:35:40;6.60;;;1.85;;
15006;SDS011;7599;50.748;13.142;2023-09-30T11:38:44;4.50;;;1.70;;
15006;SDS011;7599;50.748;13.142;2023-09-30T11:41:47;5.05;;;1.70;;
15006;SDS011;7599;50.748;13.142;2023-09-30T11:44:50;6.15;;;1.95;;
15006;SDS011;7599;50.748;13.142;2023-09-30T11:47:54;5.28;;;1.80;;
15006;SDS011;7599;50.748;13.142;2023-09-30T11:50:59;5.25;;;1.35;;
15006;SDS011;7599;50.748;13.142;2023-09-30T11:54:11;4.18;;;2.05;;
15006;SDS011;7599;50.748;13.142;2023-09-30T11:57:17;4.60;;;1.60;;
15006;SDS011;7599;50.748;13.142;2023-09-30T12:00:24;6.07;;;1.50;;
15006;SDS011;7599;50.748;13.142;2023-09-30T12:03:28;4.40;;;1.63;;
15006;SDS011;7599;50.748;13.142;2023-09-30T12:06:43;6.35;;;1.63;;
15006;SDS011;7599;50.748;13.142;2023-09-30T12:09:45;5.40;;;1.38;;
15006;SDS011;7599;50.748;13.142;2023-09-30T12:12:48;3.50;;;1.30;;
15006;SDS011;7599;50.748;13.142;2023-09-30T12:15:51;4.20;;;1.83;;
15006;SDS011;7599;50.748;13.142;2023-09-30T12:18:56;4.47;;;1.77;;
15006;SDS011;7599;50.748;13.142;2023-09-30T12:21:59;3.85;;;1.58;;
15006;SDS011;7599;50.748;13.142;2023-09-30T12:25:02;3.22;;;1.40;;
15006;SDS011;7599;50.748;13.142;2023-09-30T12:28:05;4.38;;;1.50;;
15006;SDS011;7599;50.748;13.142;2023-09-30T12:31:08;7.63;;;1.58;;
15006;SDS011;7599;50.748;13.142;2023-09-30T12:34:14;2.80;;;1.30;;
15006;SDS011;7599;50.748;13.142;2023-09-30T12:37:17;4.85;;;1.63;;
15006;SDS011;7599;50.748;13.142;2023-09-30T12:40:20;5.90;;;1.65;;
15006;SDS011;7599;50.748;13.142;2023-09-30T12:43:23;3.85;;;1.80;;
15006;SDS011;7599;50.748;13.142;2023-09-30T12:46:26;4.63;;;1.60;;
15006;SDS011;7599;50.748;13.142;2023-09-30T12:49:30;4.22;;;1.63;;
15006;SDS011;7599;50.748;13.142;2023-09-30T12:52:32;5.45;;;1.70;;
15006;SDS011;7599;50.748;13.142;2023-09-30T12:55:35;5.80;;;1.98;;
15006;SDS011;7599;50.748;13.142;2023-09-30T12:58:38;3.78;;;1.10;;
15006;SDS011;7599;50.748;13.142;2023-09-30T13:01:40;4.18;;;1.73;;
15006;SDS011;7599;50.748;13.142;2023-09-30T13:04:45;5.95;;;1.98;;
15006;SDS011;7599;50.748;13.142;2023-09-30T13:07:48;3.72;;;1.48;;
15006;SDS011;7599;50.748;13.142;2023-09-30T13:10:51;4.90;;;1.40;;
15006;SDS011;7599;50.748;13.142;2023-09-30T13:13:54;2.40;;;1.30;;
15006;SDS011;7599;50.748;13.142;2023-09-30T13:16:56;7.38;;;1.30;;
15006;SDS011;7599;50.748;13.142;2023-09-30T13:20:00;5.15;;;1.30;;
15006;SDS011;7599;50.748;13.142;2023-09-30T13:23:06;3.05;;;0.95;;
15006;SDS011;7599;50.748;13.142;2023-09-30T13:26:09;3.95;;;1.45;;
15006;SDS011;7599;50.748;13.142;2023-09-30T13:29:11;4.75;;;1.60;;
15006;SDS011;7599;50.748;13.142;2023-09-30T13:32:16;3.25;;;1.40;;
15006;SDS011;7599;50.748;13.142;2023-09-30T13:35:22;4.00;;;1.38;;
15006;SDS011;7599;50.748;13.142;2023-09-30T13:38:25;3.05;;;1.33;;
15006;SDS011;7599;50.748;13.142;2023-09-30T13:41:28;4.30;;;1.52;;
15006;SDS011;7599;50.748;13.142;2023-09-30T13:44:30;3.28;;;1.08;;
15006;SDS011;7599;50.748;13.142;2023-09-30T13:47:33;2.30;;;1.27;;
15006;SDS011;7599;50.748;13.142;2023-09-30T13:50:37;4.28;;;1.30;;
15006;SDS011;7599;50.748;13.142;2023-09-30T13:53:40;3.13;;;1.30;;
15006;SDS011;7599;50.748;13.142;2023-09-30T13:56:44;3.25;;;1.25;;
15006;SDS011;7599;50.748;13.142;2023-09-30T13:59:47;3.63;;;1.23;;
15006;SDS011;7599;50.748;13.142;2023-09-30T14:02:49;5.15;;;1.20;;
15006;SDS011;7599;50.748;13.142;2023-09-30T14:05:54;4.57;;;1.45;;
15006;SDS011;7599;50.748;13.142;2023-09-30T14:08:57;5.00;;;1.67;;
15006;SDS011;7599;50.748;13.142;2023-09-30T14:12:00;3.70;;;1.10;;
15006;SDS011;7599;50.748;13.142;2023-09-30T14:15:05;3.13;;;1.50;;
15006;SDS011;7599;50.748;13.142;2023-09-30T14:18:09;2.60;;;1.02;;
15006;SDS011;7599;50.748;13.142;2023-09-30T14:21:13;4.88;;;1.30;;
15006;SDS011;7599;50.748;13.142;2023-09-30T14:24:15;2.13;;;0.95;;
15006;SDS011;7599;50.748;13.142;2023-09-30T14:27:18;2.72;;;1.25;;
15006;SDS011;7599;50.748;13.142;2023-09-30T14:30:21;5.55;;;1.95;;
15006;SDS011;7599;50.748;13.142;2023-09-30T14:33:26;3.65;;;1.48;;
15006;SDS011;7599;50.748;13.142;2023-09-30T14:36:30;5.93;;;1.48;;
15006;SDS011;7599;50.748;13.142;2023-09-30T14:39:34;8.80;;;1.60;;
15006;SDS011;7599;50.748;13.142;2023-09-30T14:42:36;3.63;;;1.60;;
15006;SDS011;7599;50.748;13.142;2023-09-30T14:45:39;4.05;;;1.20;;
15006;SDS011;7599;50.748;13.142;2023-09-30T14:48:42;3.35;;;1.33;;
15006;SDS011;7599;50.748;13.142;2023-09-30T14:51:47;4.93;;;1.20;;
15006;SDS011;7599;50.748;13.142;2023-09-30T14:54:50;5.28;;;1.30;;
15006;SDS011;7599;50.748;13.142;2023-09-30T14:57:53;3.72;;;1.70;;
15006;SDS011;7599;50.748;13.142;2023-09-30T15:00:56;3.60;;;1.33;;
15006;SDS011;7599;50.748;13.142;2023-09-30T15:03:59;2.40;;;1.10;;
15006;SDS011;7599;50.748;13.142;2023-09-30T15:07:03;3.92;;;1.35;;
15006;SDS011;7599;50.748;13.142;2023-09-30T15:10:07;3.05;;;0.93;;
15006;SDS011;7599;50.748;13.142;2023-09-30T15:13:10;3.88;;;1.15;;
15006;SDS011;7599;50.748;13.142;2023-09-30T15:16:16;2.75;;;1.40;;
15006;SDS011;7599;50.748;13.142;2023-09-30T15:19:20;3.50;;;1.42;;
15006;SDS011;7599;50.748;13.142;2023-09-30T15:22:24;3.05;;;1.40;;
15006;SDS011;7599;50.748;13.142;2023-09-30T15:25:27;3.28;;;1.02;;
15006;SDS011;7599;50.748;13.142;2023-09-30T15:28:30;2.78;;;1.25;;
15006;SDS011;7599;50.748;13.142;2023-09-30T15:31:32;3.78;;;1.27;;
15006;SDS011;7599;50.748;13.142;2023-09-30T15:34:35;4.85;;;1.08;;
15006;SDS011;7599;50.748;13.142;2023-09-30T15:37:40;2.15;;;1.05;;
15006;SDS011;7599;50.748;13.142;2023-09-30T15:40:50;6.78;;;1.05;;
15006;SDS011;7599;50.748;13.142;2023-09-30T15:43:54;4.80;;;1.00;;
15006;SDS011;7599;50.748;13.142;2023-09-30T15:47:01;4.78;;;1.20;;
15006;SDS011;7599;50.748;13.142;2023-09-30T15:50:05;3.97;;;1.10;;
15006;SDS011;7599;50.748;13.142;2023-09-30T15:53:09;3.30;;;0.98;;
15006;SDS011;7599;50.748;13.142;2023-09-30T15:56:12;2.17;;;0.85;;
15006;SDS011;7599;50.748;13.142;2023-09-30T15:59:15;3.97;;;1.17;;
15006;SDS011;7599;50.748;13.142;2023-09-30T16:02:17;2.95;;;0.73;;
15006;SDS011;7599;50.748;13.142;2023-09-30T16:05:20;2.92;;;1.05;;
15006;SDS011;7599;50.748;13.142;2023-09-30T16:08:24;2.25;;;0.75;;
15006;SDS011;7599;50.748;13.142;2023-09-30T16:11:26;2.80;;;1.08;;
15006;SDS011;7599;50.748;13.142;2023-09-30T16:14:29;3.50;;;1.23;;
15006;SDS011;7599;50.748;13.142;2023-09-30T16:17:32;2.83;;;1.55;;
15006;SDS011;7599;50.748;13.142;2023-09-30T16:20:35;1.48;;;0.85;;
15006;SDS011;7599;50.748;13.142;2023-09-30T16:23:39;1.95;;;0.95;;
15006;SDS011;7599;50.748;13.142;2023-09-30T16:26:42;3.38;;;1.10;;
15006;SDS011;7599;50.748;13.142;2023-09-30T16:29:44;1.95;;;0.80;;
15006;SDS011;7599;50.748;13.142;2023-09-30T16:32:47;2.65;;;0.80;;
15006;SDS011;7599;50.748;13.142;2023-09-30T16:35:50;2.00;;;1.10;;
15006;SDS011;7599;50.748;13.142;2023-09-30T16:38:55;3.42;;;0.70;;
15006;SDS011;7599;50.748;13.142;2023-09-30T16:41:57;2.08;;;0.90;;
15006;SDS011;7599;50.748;13.142;2023-09-30T16:45:00;2.25;;;0.90;;
15006;SDS011;7599;50.748;13.142;2023-09-30T16:48:04;1.20;;;0.60;;
15006;SDS011;7599;50.748;13.142;2023-09-30T16:51:08;2.97;;;1.30;;
15006;SDS011;7599;50.748;13.142;2023-09-30T16:54:12;2.33;;;0.90;;
15006;SDS011;7599;50.748;13.142;2023-09-30T16:57:15;2.25;;;0.95;;
15006;SDS011;7599;50.748;13.142;2023-09-30T17:00:17;2.95;;;1.20;;
15006;SDS011;7599;50.748;13.142;2023-09-30T17:03:20;1.60;;;0.80;;
15006;SDS011;7599;50.748;13.142;2023-09-30T17:06:22;1.80;;;0.95;;
15006;SDS011;7599;50.748;13.142;2023-09-30T17:09:26;2.70;;;0.82;;
15006;SDS011;7599;50.748;13.142;2023-09-30T17:12:29;6.07;;;1.10;;
15006;SDS011;7599;50.748;13.142;2023-09-30T17:15:32;2.53;;;1.05;;
15006;SDS011;7599;50.748;13.142;2023-09-30T17:18:37;2.85;;;1.05;;
15006;SDS011;7599;50.748;13.142;2023-09-30T17:21:40;1.63;;;0.90;;
15006;SDS011;7599;50.748;13.142;2023-09-30T17:24:44;2.15;;;0.82;;
15006;SDS011;7599;50.748;13.142;2023-09-30T17:27:47;4.43;;;1.20;;
15006;SDS011;7599;50.748;13.142;2023-09-30T17:30:49;2.40;;;1.00;;
15006;SDS011;7599;50.748;13.142;2023-09-30T17:33:52;2.00;;;0.80;;
15006;SDS011;7599;50.748;13.142;2023-09-30T17:36:55;2.75;;;1.30;;
15006;SDS011;7599;50.748;13.142;2023-09-30T17:39:59;2.83;;;1.10;;
15006;SDS011;7599;50.748;13.142;2023-09-30T17:43:02;2.40;;;1.10;;
15006;SDS011;7599;50.748;13.142;2023-09-30T17:46:08;1.70;;;0.93;;
15006;SDS011;7599;50.748;13.142;2023-09-30T17:49:11;2.95;;;1.23;;
15006;SDS011;7599;50.748;13.142;2023-09-30T17:52:14;1.40;;;0.90;;
15006;SDS011;7599;50.748;13.142;2023-09-30T17:55:18;3.28;;;1.27;;
15006;SDS011;7599;50.748;13.142;2023-09-30T17:58:21;1.80;;;1.10;;
15006;SDS011;7599;50.748;13.142;2023-09-30T18:01:23;3.25;;;1.40;;
15006;SDS011;7599;50.748;13.142;2023-09-30T18:04:26;1.42;;;0.85;;
15006;SDS011;7599;50.748;13.142;2023-09-30T18:07:29;3.72;;;1.02;;
15006;SDS011;7599;50.748;13.142;2023-09-30T18:10:33;1.95;;;1.00;;
15006;SDS011;7599;50.748;13.142;2023-09-30T18:13:37;3.72;;;1.15;;
15006;SDS011;7599;50.748;13.142;2023-09-30T18:16:40;2.65;;;1.40;;
15006;SDS011;7599;50.748;13.142;2023-09-30T18:19:44;2.28;;;1.00;;
15006;SDS011;7599;50.748;13.142;2023-09-30T18:22:48;2.60;;;1.40;;
15006;SDS011;7599;50.748;13.142;2023-09-30T18:25:52;2.75;;;1.20;;
15006;SDS011;7599;50.748;13.142;2023-09-30T18:28:54;4.88;;;1.33;;
15006;SDS011;7599;50.748;13.142;2023-09-30T18:31:57;2.67;;;1.40;;
15006;SDS011;7599;50.748;13.142;2023-09-30T18:35:00;2.70;;;1.27;;
15006;SDS011;7599;50.748;13.142;2023-09-30T18:38:03;2.05;;;1.00;;
15006;SDS011;7599;50.748;13.142;2023-09-30T18:41:13;4.22;;;1.23;;
15006;SDS011;7599;50.748;13.142;2023-09-30T18:44:17;2.15;;;1.13;;
15006;SDS011;7599;50.748;13.142;2023-09-30T18:47:20;2.35;;;1.27;;
15006;SDS011;7599;50.748;13.142;2023-09-30T18:50:23;2.08;;;1.20;;
15006;SDS011;7599;50.748;13.142;2023-09-30T18:53:25;2.78;;;1.40;;
15006;SDS011;7599;50.748;13.142;2023-09-30T18:56:29;2.30;;;1.23;;
15006;SDS011;7599;50.748;13.142;2023-09-30T18:59:33;2.88;;;1.45;;
15006;SDS011;7599;50.748;13.142;2023-09-30T19:02:35;2.60;;;1.38;;
15006;SDS011;7599;50.748;13.142;2023-09-30T19:05:39;2.78;;;1.52;;
15006;SDS011;7599;50.748;13.142;2023-09-30T19:08:42;3.00;;;1.60;;
15006;SDS011;7599;50.748;13.142;2023-09-30T19:11:46;2.85;;;1.40;;
15006;SDS011;7599;50.748;13.142;2023-09-30T19:14:49;3.00;;;1.25;;
15006;SDS011;7599;50.748;13.142;2023-09-30T19:17:51;2.63;;;1.40;;
15006;SDS011;7599;50.748;13.142;2023-09-30T19:20:54;2.45;;;1.35;;
15006;SDS011;7599;50.748;13.142;2023-09-30T19:23:57;3.60;;;1.65;;
15006;SDS011;7599;50.748;13.142;2023-09-30T19:27:03;3.58;;;1.73;;
15006;SDS011;7599;50.748;13.142;2023-09-30T19:30:06;3.13;;;1.60;;
15006;SDS011;7599;50.748;13.142;2023-09-30T19:33:09;3.78;;;1.40;;
15006;SDS011;7599;50.748;13.142;2023-09-30T19:36:15;4.10;;;1.52;;
15006;SDS011;7599;50.748;13.142;2023-09-30T19:39:18;3.50;;;1.67;;
15006;SDS011;7599;50.748;13.142;2023-09-30T19:42:22;3.45;;;1.58;;
15006;SDS011;7599;50.748;13.142;2023-09-30T19:45:25;4.03;;;1.67;;
15006;SDS011;7599;50.748;13.142;2023-09-30T19:48:27;3.03;;;1.40;;
15006;SDS011;7599;50.748;13.142;2023-09-30T19:51:30;2.60;;;1.23;;
15006;SDS011;7599;50.748;13.142;2023-09-30T19:54:33;2.53;;;1.30;;
15006;SDS011;7599;50.748;13.142;2023-09-30T19:57:37;2.17;;;1.20;;
15006;SDS011;7599;50.748;13.142;2023-09-30T20:00:40;4.05;;;1.35;;
15006;SDS011;7599;50.748;13.142;2023-09-30T20:03:44;3.10;;;1.45;;
15006;SDS011;7599;50.748;13.142;2023-09-30T20:06:47;2.50;;;1.20;;
15006;SDS011;7599;50.748;13.142;2023-09-30T20:09:51;3.13;;;1.48;;
15006;SDS011;7599;50.748;13.142;2023-09-30T20:12:55;2.97;;;1.45;;
15006;SDS011;7599;50.748;13.142;2023-09-30T20:15:58;2.65;;;1.30;;
15006;SDS011;7599;50.748;13.142;2023-09-30T20:19:01;1.95;;;1.20;;
15006;SDS011;7599;50.748;13.142;2023-09-30T20:22:04;1.02;;;0.93;;
15006;SDS011;7599;50.748;13.142;2023-09-30T20:25:07;2.45;;;1.30;;
15006;SDS011;7599;50.748;13.142;2023-09-30T20:28:13;2.03;;;1.13;;
15006;SDS011;7599;50.748;13.142;2023-09-30T20:31:17;2.40;;;1.25;;
15006;SDS011;7599;50.748;13.142;2023-09-30T20:34:20;2.08;;;1.08;;
15006;SDS011;7599;50.748;13.142;2023-09-30T20:37:23;2.42;;;1.30;;
15006;SDS011;7599;50.748;13.142;2023-09-30T20:40:26;1.95;;;1.00;;
15006;SDS011;7599;50.748;13.142;2023-09-30T20:43:32;2.03;;;0.98;;
15006;SDS011;7599;50.748;13.142;2023-09-30T20:46:35;3.35;;;1.25;;
15006;SDS011;7599;50.748;13.142;2023-09-30T20:49:37;1.92;;;1.30;;
15006;SDS011;7599;50.748;13.142;2023-09-30T20:52:40;2.22;;;1.13;;
15006;SDS011;7599;50.748;13.142;2023-09-30T20:55:43;2.78;;;1.30;;
15006;SDS011;7599;50.748;13.142;2023-09-30T20:58:47;2.10;;;1.10;;
15006;SDS011;7599;50.748;13.142;2023-09-30T21:01:51;2.53;;;1.20;;
15006;SDS011;7599;50.748;13.142;2023-09-30T21:04:55;2.80;;;1.00;;
15006;SDS011;7599;50.748;13.142;2023-09-30T21:07:58;1.90;;;1.08;;
15006;SDS011;7599;50.748;13.142;2023-09-30T21:11:00;2.50;;;1.10;;
15006;SDS011;7599;50.748;13.142;2023-09-30T21:14:04;2.60;;;1.08;;
15006;SDS011;7599;50.748;13.142;2023-09-30T21:17:07;2.38;;;1.10;;
15006;SDS011;7599;50.748;13.142;2023-09-30T21:20:10;2.55;;;1.00;;
15006;SDS011;7599;50.748;13.142;2023-09-30T21:23:13;2.15;;;1.10;;
15006;SDS011;7599;50.748;13.142;2023-09-30T21:26:16;2.30;;;0.95;;
15006;SDS011;7599;50.748;13.142;2023-09-30T21:29:20;2.25;;;1.35;;
15006;SDS011;7599;50.748;13.142;2023-09-30T21:32:23;1.90;;;1.20;;
15006;SDS011;7599;50.748;13.142;2023-09-30T21:35:25;2.08;;;0.93;;
15006;SDS011;7599;50.748;13.142;2023-09-30T21:38:28;1.73;;;1.15;;
15006;SDS011;7599;50.748;13.142;2023-09-30T21:41:33;2.05;;;1.00;;
15006;SDS011;7599;50.748;13.142;2023-09-30T21:44:37;1.92;;;1.00;;
15006;SDS011;7599;50.748;13.142;2023-09-30T21:47:40;2.35;;;1.30;;
15006;SDS011;7599;50.748;13.142;2023-09-30T21:50:42;3.10;;;1.20;;
15006;SDS011;7599;50.748;13.142;2023-09-30T21:53:45;2.00;;;0.90;;
15006;SDS011;7599;50.748;13.142;2023-09-30T21:56:48;2.90;;;1.10;;
15006;SDS011;7599;50.748;13.142;2023-09-30T21:59:52;2.92;;;1.20;;
15006;SDS011;7599;50.748;13.142;2023-09-30T22:02:55;2.75;;;1.10;;
15006;SDS011;7599;50.748;13.142;2023-09-30T22:05:58;3.20;;;1.17;;
15006;SDS011;7599;50.748;13.142;2023-09-30T22:09:01;3.03;;;1.20;;
15006;SDS011;7599;50.748;13.142;2023-09-30T22:12:04;2.30;;;1.08;;
15006;SDS011;7599;50.748;13.142;2023-09-30T22:15:09;3.47;;;1.08;;
15006;SDS011;7599;50.748;13.142;2023-09-30T22:18:12;1.83;;;1.02;;
15006;SDS011;7599;50.748;13.142;2023-09-30T22:21:15;3.20;;;1.25;;
15006;SDS011;7599;50.748;13.142;2023-09-30T22:24:18;3.22;;;1.60;;
15006;SDS011;7599;50.748;13.142;2023-09-30T22:27:20;2.15;;;1.20;;
15006;SDS011;7599;50.748;13.142;2023-09-30T22:30:25;2.35;;;1.27;;
15006;SDS011;7599;50.748;13.142;2023-09-30T22:33:27;2.13;;;0.85;;
15006;SDS011;7599;50.748;13.142;2023-09-30T22:36:30;2.67;;;1.48;;
15006;SDS011;7599;50.748;13.142;2023-09-30T22:39:47;1.92;;;0.98;;
15006;SDS011;7599;50.748;13.142;2023-09-30T22:42:49;1.40;;;0.80;;
15006;SDS011;7599;50.748;13.142;2023-09-30T22:45:54;2.40;;;1.13;;
15006;SDS011;7599;50.748;13.142;2023-09-30T22:48:56;1.90;;;1.00;;
15006;SDS011;7599;50.748;13.142;2023-09-30T22:52:01;2.92;;;1.02;;
15006;SDS011;7599;50.748;13.142;2023-09-30T22:55:04;3.05;;;1.00;;
15006;SDS011;7599;50.748;13.142;2023-09-30T22:58:07;1.80;;;0.90;;
15006;SDS011;7599;50.748;13.142;2023-09-30T23:01:19;1.75;;;0.90;;
15006;SDS011;7599;50.748;13.142;2023-09-30T23:04:23;1.65;;;0.95;;
15006;SDS011;7599;50.748;13.142;2023-09-30T23:07:26;1.55;;;0.90;;
15006;SDS011;7599;50.748;13.142;2023-09-30T23:10:29;3.80;;;1.48;;
15006;SDS011;7599;50.748;13.142;2023-09-30T23:13:32;3.05;;;1.30;;
15006;SDS011;7599;50.748;13.142;2023-09-30T23:16:36;2.30;;;1.08;;
15006;SDS011;7599;50.748;13.142;2023-09-30T23:19:40;2.05;;;1.00;;
15006;SDS011;7599;50.748;13.142;2023-09-30T23:22:44;2.15;;;0.90;;
15006;SDS011;7599;50.748;13.142;2023-09-30T23:25:50;2.00;;;1.00;;
15006;SDS011;7599;50.748;13.142;2023-09-30T23:28:54;2.78;;;1.15;;
15006;SDS011;7599;50.748;13.142;2023-09-30T23:32:01;2.13;;;0.80;;
15006;SDS011;7599;50.748;13.142;2023-09-30T23:35:04;2.45;;;1.10;;
15006;SDS011;7599;50.748;13.142;2023-09-30T23:38:10;2.95;;;1.30;;
15006;SDS011;7599;50.748;13.142;2023-09-30T23:41:14;2.30;;;1.00;;
15006;SDS011;7599;50.748;13.142;2023-09-30T23:44:18;1.60;;;0.68;;
15006;SDS011;7599;50.748;13.142;2023-09-30T23:47:23;2.90;;;1.30;;
15006;SDS011;7599;50.748;13.142;2023-09-30T23:50:47;3.40;;;1.20;;
15006;SDS011;7599;50.748;13.142;2023-09-30T23:53:54;1.55;;;0.85;;
15006;SDS011;7599;50.748;13.142;2023-09-30T23:56:57;3.05;;;1.17;;
